Chachoan Airport


Codes: SEAM/ATF
Name: Chachoan Airport
City: Ambato
Country: Ecuador
Elevation: 8502 ft.

Photos at Chachoan Airport


   Photos courtesy of SpottingLog. You can add your own sightings and photos by signing up for a free trial today.



No photos found.

Weather at Chachoan Airport


Time (UTC)DescriptionTempratureWindCloud coverageVisibilityPressureHumidity
21-Feb-2024 03:00Light Rain16°C4 mph, W100%10000m1021hPa64%
21-Feb-2024 06:00Light Rain15°C4 mph, NW100%10000m1020hPa72%
21-Feb-2024 09:00Overcast Clouds14°C4 mph, NW100%10000m1019hPa81%
21-Feb-2024 12:00Light Rain13°C4 mph, NW100%10000m1020hPa90%
21-Feb-2024 15:00Light Rain19°C4 mph, W100%10000m1018hPa63%
21-Feb-2024 18:00Light Rain17°C7 mph, W100%10000m1016hPa70%
21-Feb-2024 21:00Light Rain17°C9 mph, NW99%10000m1015hPa74%
22-Feb-2024 00:00Light Rain13°C7 mph, NW100%10000m1019hPa87%
22-Feb-2024 03:00Light Rain13°C7 mph, NW100%10000m1021hPa88%
22-Feb-2024 06:00Overcast Clouds12°C7 mph, NW100%10000m1021hPa87%
22-Feb-2024 09:00Overcast Clouds11°C7 mph, NW99%10000m1020hPa86%
22-Feb-2024 12:00Broken Clouds11°C4 mph, NW84%10000m1021hPa85%
22-Feb-2024 15:00Broken Clouds19°C4 mph, NW52%10000m1017hPa49%
22-Feb-2024 18:00Broken Clouds25°C4 mph, W53%10000m1010hPa34%
22-Feb-2024 21:00Light Rain20°C2 mph, SW99%10000m1010hPa55%
23-Feb-2024 00:00Light Rain14°C2 mph, W100%10000m1015hPa83%
23-Feb-2024 03:00Overcast Clouds13°C2 mph, NW100%10000m1018hPa80%
23-Feb-2024 06:00Overcast Clouds12°C2 mph, N100%10000m1017hPa75%
23-Feb-2024 09:00Overcast Clouds11°C2 mph, SE100%10000m1017hPa75%
23-Feb-2024 12:00Overcast Clouds11°C2 mph, SE99%10000m1019hPa80%
23-Feb-2024 15:00Broken Clouds17°C7 mph, SE75%10000m1017hPa69%
23-Feb-2024 18:00Light Rain20°C7 mph, SE72%10000m1013hPa56%
23-Feb-2024 21:00Light Rain18°C7 mph, SE63%10000m1012hPa69%
24-Feb-2024 00:00Light Rain14°C4 mph, SE73%10000m1015hPa91%
24-Feb-2024 03:00Light Rain14°C2 mph, SE96%10000m1018hPa93%
24-Feb-2024 06:00Light Rain13°C2 mph, SE92%10000m1018hPa94%
24-Feb-2024 09:00Overcast Clouds13°C2 mph, SE98%10000m1017hPa93%
24-Feb-2024 12:00Light Rain13°C2 mph, SE94%10000m1019hPa93%
24-Feb-2024 15:00Light Rain15°C4 mph, SE98%10000m1020hPa85%
24-Feb-2024 18:00Light Rain16°C9 mph, SE98%9290m1017hPa82%
24-Feb-2024 21:00Light Rain17°C7 mph, SE100%10000m1014hPa70%
25-Feb-2024 00:00Light Rain13°C2 mph, SE85%10000m1016hPa86%
25-Feb-2024 03:00Broken Clouds12°C0 mph, SE54%10000m1020hPa91%
25-Feb-2024 06:00Scattered Clouds10°C2 mph, SE39%4412m1021hPa95%
25-Feb-2024 09:00Overcast Clouds10°C0 mph, S90%10000m1020hPa94%
25-Feb-2024 12:00Overcast Clouds11°C0 mph, E92%10000m1021hPa89%
25-Feb-2024 15:00Broken Clouds17°C7 mph, SE84%10000m1019hPa62%
25-Feb-2024 18:00Light Rain20°C9 mph, SE87%10000m1014hPa51%
25-Feb-2024 21:00Light Rain19°C7 mph, SE79%10000m1012hPa61%
26-Feb-2024 00:00Light Rain14°C4 mph, SE86%10000m1017hPa89%